sensor_id;sensor_type;location;lat;lon;timestamp;noise_LAeq;noise_LA_min;noise_LA_max;noise_LA01;noise_LA95
49732;Laerm;43666;51.442;6.778;2023-02-01T00:01:58;37.33;26.91;41.82;;
49732;Laerm;43666;51.442;6.778;2023-02-01T00:04:25;37.44;29.92;42.71;;
49732;Laerm;43666;51.442;6.778;2023-02-01T00:06:52;37.33;30.89;41.22;;
49732;Laerm;43666;51.442;6.778;2023-02-01T00:09:17;37.47;29.92;42.41;;
49732;Laerm;43666;51.442;6.778;2023-02-01T00:11:44;37.29;28.67;42.58;;
49732;Laerm;43666;51.442;6.778;2023-02-01T00:14:10;37.32;5.00;42.16;;
49732;Laerm;43666;51.442;6.778;2023-02-01T00:16:37;37.27;28.67;42.22;;
49732;Laerm;43666;51.442;6.778;2023-02-01T00:19:05;37.31;26.91;42.16;;
49732;Laerm;43666;51.442;6.778;2023-02-01T00:21:32;37.34;29.92;42.59;;
49732;Laerm;43666;51.442;6.778;2023-02-01T00:23:58;37.16;28.67;42.29;;
49732;Laerm;43666;51.442;6.778;2023-02-01T00:26:34;37.32;26.91;41.89;;
49732;Laerm;43666;51.442;6.778;2023-02-01T00:29:01;37.25;26.91;43.39;;
49732;Laerm;43666;51.442;6.778;2023-02-01T00:31:26;37.23;28.67;42.58;;
49732;Laerm;43666;51.442;6.778;2023-02-01T00:33:52;37.34;28.67;42.59;;
49732;Laerm;43666;51.442;6.778;2023-02-01T00:36:18;37.28;29.92;43.14;;
49732;Laerm;43666;51.442;6.778;2023-02-01T00:38:44;37.31;29.92;42.47;;
49732;Laerm;43666;51.442;6.778;2023-02-01T00:41:10;37.31;30.89;42.22;;
49732;Laerm;43666;51.442;6.778;2023-02-01T00:43:36;37.21;26.91;42.41;;
49732;Laerm;43666;51.442;6.778;2023-02-01T00:46:03;36.80;26.91;41.06;;
49732;Laerm;43666;51.442;6.778;2023-02-01T00:48:29;37.26;29.92;43.19;;
49732;Laerm;43666;51.442;6.778;2023-02-01T00:51:05;37.30;26.91;42.35;;
49732;Laerm;43666;51.442;6.778;2023-02-01T00:53:31;37.25;28.67;41.89;;
49732;Laerm;43666;51.442;6.778;2023-02-01T00:55:57;37.26;26.91;41.82;;
49732;Laerm;43666;51.442;6.778;2023-02-01T00:58:23;37.32;30.89;42.88;;
49732;Laerm;43666;51.442;6.778;2023-02-01T01:03:38;37.45;28.67;42.41;;
49732;Laerm;43666;51.442;6.778;2023-02-01T01:06:14;37.20;30.89;41.75;;
49732;Laerm;43666;51.442;6.778;2023-02-01T01:08:41;37.22;28.67;42.22;;
49732;Laerm;43666;51.442;6.778;2023-02-01T01:11:07;37.16;29.92;41.68;;
49732;Laerm;43666;51.442;6.778;2023-02-01T01:13:33;37.55;29.92;42.22;;
49732;Laerm;43666;51.442;6.778;2023-02-01T01:16:01;37.40;26.91;41.96;;
49732;Laerm;43666;51.442;6.778;2023-02-01T01:18:29;37.25;28.67;41.68;;
49732;Laerm;43666;51.442;6.778;2023-02-01T01:20:55;37.36;29.92;41.68;;
49732;Laerm;43666;51.442;6.778;2023-02-01T01:23:21;37.34;30.89;42.22;;
49732;Laerm;43666;51.442;6.778;2023-02-01T01:25:46;37.34;26.91;41.89;;
49732;Laerm;43666;51.442;6.778;2023-02-01T01:28:13;37.21;29.92;41.82;;
49732;Laerm;43666;51.442;6.778;2023-02-01T01:30:39;37.24;31.68;41.53;;
49732;Laerm;43666;51.442;6.778;2023-02-01T01:33:04;37.27;31.68;42.53;;
49732;Laerm;43666;51.442;6.778;2023-02-01T01:35:31;37.22;29.92;41.06;;
49732;Laerm;43666;51.442;6.778;2023-02-01T01:37:56;37.20;29.92;41.55;;
49732;Laerm;43666;51.442;6.778;2023-02-01T01:40:23;37.31;28.67;42.59;;
49732;Laerm;43666;51.442;6.778;2023-02-01T01:42:49;37.20;29.92;42.41;;
49732;Laerm;43666;51.442;6.778;2023-02-01T01:45:23;37.14;28.67;41.38;;
49732;Laerm;43666;51.442;6.778;2023-02-01T01:48:02;37.07;30.89;41.06;;
49732;Laerm;43666;51.442;6.778;2023-02-01T01:50:30;37.12;30.89;41.68;;
49732;Laerm;43666;51.442;6.778;2023-02-01T01:52:58;37.26;29.92;41.96;;
49732;Laerm;43666;51.442;6.778;2023-02-01T01:55:26;37.30;28.67;42.59;;
49732;Laerm;43666;51.442;6.778;2023-02-01T01:57:55;37.41;29.92;41.82;;
49732;Laerm;43666;51.442;6.778;2023-02-01T02:00:23;36.99;28.67;41.53;;
49732;Laerm;43666;51.442;6.778;2023-02-01T02:02:53;37.05;29.92;40.53;;
49732;Laerm;43666;51.442;6.778;2023-02-01T02:05:20;36.87;28.67;40.45;;
49732;Laerm;43666;51.442;6.778;2023-02-01T02:07:46;37.00;28.67;41.22;;
49732;Laerm;43666;51.442;6.778;2023-02-01T02:10:16;36.98;30.89;40.33;;
49732;Laerm;43666;51.442;6.778;2023-02-01T02:12:43;37.09;26.91;40.53;;
49732;Laerm;43666;51.442;6.778;2023-02-01T02:15:10;37.08;29.92;40.53;;
49732;Laerm;43666;51.442;6.778;2023-02-01T02:33:21;37.03;28.67;41.48;;
49732;Laerm;43666;51.442;6.778;2023-02-01T02:41:03;37.05;29.92;41.38;;
49732;Laerm;43666;51.442;6.778;2023-02-01T02:43:48;37.06;26.91;41.30;;
49732;Laerm;43666;51.442;6.778;2023-02-01T02:46:37;37.03;26.91;41.53;;
49732;Laerm;43666;51.442;6.778;2023-02-01T02:49:23;36.99;29.92;41.53;;
49732;Laerm;43666;51.442;6.778;2023-02-01T02:52:13;37.04;28.67;41.82;;
49732;Laerm;43666;51.442;6.778;2023-02-01T02:55:00;36.94;23.90;41.75;;
49732;Laerm;43666;51.442;6.778;2023-02-01T03:00:15;36.82;28.67;41.61;;
49732;Laerm;43666;51.442;6.778;2023-02-01T03:03:00;36.73;28.67;40.98;;
49732;Laerm;43666;51.442;6.778;2023-02-01T03:05:45;36.76;29.92;40.80;;
49732;Laerm;43666;51.442;6.778;2023-02-01T03:08:19;36.64;28.67;40.43;;
49732;Laerm;43666;51.442;6.778;2023-02-01T03:13:17;36.63;28.67;40.43;;
49732;Laerm;43666;51.442;6.778;2023-02-01T03:18:16;36.67;28.32;40.45;;
49732;Laerm;43666;51.442;6.778;2023-02-01T03:20:45;36.74;28.67;41.53;;
49732;Laerm;43666;51.442;6.778;2023-02-01T03:23:13;36.93;28.67;41.14;;
49732;Laerm;43666;51.442;6.778;2023-02-01T03:25:41;36.92;26.91;40.62;;
49732;Laerm;43666;51.442;6.778;2023-02-01T03:28:07;36.91;23.90;40.98;;
49732;Laerm;43666;51.442;6.778;2023-02-01T03:30:42;37.04;29.92;40.89;;
49732;Laerm;43666;51.442;6.778;2023-02-01T03:33:17;37.03;28.67;40.80;;
49732;Laerm;43666;51.442;6.778;2023-02-01T03:36:05;36.91;28.67;40.89;;
49732;Laerm;43666;51.442;6.778;2023-02-01T03:41:12;37.07;30.89;43.63;;
49732;Laerm;43666;51.442;6.778;2023-02-01T03:43:50;36.88;29.92;40.43;;
49732;Laerm;43666;51.442;6.778;2023-02-01T03:46:24;36.92;28.67;40.71;;
49732;Laerm;43666;51.442;6.778;2023-02-01T03:48:51;37.09;28.67;41.22;;
49732;Laerm;43666;51.442;6.778;2023-02-01T03:51:19;37.10;30.89;40.63;;
49732;Laerm;43666;51.442;6.778;2023-02-01T03:53:45;37.03;29.92;41.14;;
49732;Laerm;43666;51.442;6.778;2023-02-01T03:56:14;37.12;29.92;41.14;;
49732;Laerm;43666;51.442;6.778;2023-02-01T03:58:41;37.16;28.67;41.06;;
49732;Laerm;43666;51.442;6.778;2023-02-01T04:01:06;37.08;31.68;41.14;;
49732;Laerm;43666;51.442;6.778;2023-02-01T04:03:32;37.06;28.67;40.89;;
49732;Laerm;43666;51.442;6.778;2023-02-01T04:05:58;37.15;30.89;41.75;;
49732;Laerm;43666;51.442;6.778;2023-02-01T04:08:24;37.11;26.91;41.06;;
49732;Laerm;43666;51.442;6.778;2023-02-01T04:10:50;37.19;29.92;40.71;;
49732;Laerm;43666;51.442;6.778;2023-02-01T04:13:16;37.13;28.67;40.89;;
49732;Laerm;43666;51.442;6.778;2023-02-01T04:15:41;37.10;30.89;41.06;;
49732;Laerm;43666;51.442;6.778;2023-02-01T04:18:07;37.09;29.92;40.98;;
49732;Laerm;43666;51.442;6.778;2023-02-01T04:20:32;36.95;29.92;40.98;;
49732;Laerm;43666;51.442;6.778;2023-02-01T04:22:58;36.71;23.90;41.30;;
49732;Laerm;43666;51.442;6.778;2023-02-01T04:25:23;36.96;30.89;41.38;;
49732;Laerm;43666;51.442;6.778;2023-02-01T04:27:49;37.07;29.92;40.62;;
49732;Laerm;43666;51.442;6.778;2023-02-01T04:30:14;37.17;29.57;40.89;;
49732;Laerm;43666;51.442;6.778;2023-02-01T04:32:40;37.10;29.92;40.80;;
49732;Laerm;43666;51.442;6.778;2023-02-01T04:35:06;37.20;28.67;40.80;;
49732;Laerm;43666;51.442;6.778;2023-02-01T04:37:32;37.09;30.89;41.14;;
49732;Laerm;43666;51.442;6.778;2023-02-01T04:39:58;37.06;28.67;40.89;;
49732;Laerm;43666;51.442;6.778;2023-02-01T04:42:24;37.08;26.91;40.62;;
49732;Laerm;43666;51.442;6.778;2023-02-01T04:44:50;37.03;28.67;40.13;;
49732;Laerm;43666;51.442;6.778;2023-02-01T04:47:15;37.12;26.91;41.06;;
49732;Laerm;43666;51.442;6.778;2023-02-01T04:49:41;37.13;26.91;40.71;;
49732;Laerm;43666;51.442;6.778;2023-02-01T04:52:07;37.03;28.67;40.62;;
49732;Laerm;43666;51.442;6.778;2023-02-01T04:54:33;37.09;29.92;40.62;;
49732;Laerm;43666;51.442;6.778;2023-02-01T04:56:59;37.10;29.92;40.71;;
49732;Laerm;43666;51.442;6.778;2023-02-01T04:59:25;37.12;30.89;40.27;;
49732;Laerm;43666;51.442;6.778;2023-02-01T05:01:51;37.16;29.92;40.43;;
49732;Laerm;43666;51.442;6.778;2023-02-01T05:04:16;37.14;28.67;40.98;;
49732;Laerm;43666;51.442;6.778;2023-02-01T05:06:44;37.08;30.89;40.80;;
49732;Laerm;43666;51.442;6.778;2023-02-01T05:09:09;37.12;28.67;40.62;;
49732;Laerm;43666;51.442;6.778;2023-02-01T05:11:35;37.09;29.92;40.80;;
49732;Laerm;43666;51.442;6.778;2023-02-01T05:14:19;37.16;29.92;40.53;;
49732;Laerm;43666;51.442;6.778;2023-02-01T05:16:45;37.08;26.91;40.43;;
49732;Laerm;43666;51.442;6.778;2023-02-01T05:19:11;37.08;28.67;40.71;;
49732;Laerm;43666;51.442;6.778;2023-02-01T05:21:36;37.17;29.92;41.22;;
49732;Laerm;43666;51.442;6.778;2023-02-01T05:24:02;37.21;31.33;40.71;;
49732;Laerm;43666;51.442;6.778;2023-02-01T05:26:45;37.10;30.89;40.71;;
49732;Laerm;43666;51.442;6.778;2023-02-01T05:29:12;37.03;29.92;41.22;;
49732;Laerm;43666;51.442;6.778;2023-02-01T05:31:38;37.02;26.91;40.43;;
49732;Laerm;43666;51.442;6.778;2023-02-01T05:34:04;37.20;28.67;40.33;;
49732;Laerm;43666;51.442;6.778;2023-02-01T05:36:30;37.07;28.67;41.46;;
49732;Laerm;43666;51.442;6.778;2023-02-01T05:38:56;37.12;29.92;40.80;;
49732;Laerm;43666;51.442;6.778;2023-02-01T05:41:21;37.21;28.67;40.53;;
49732;Laerm;43666;51.442;6.778;2023-02-01T05:43:47;37.09;30.89;40.62;;
49732;Laerm;43666;51.442;6.778;2023-02-01T05:46:14;37.26;30.89;41.22;;
49732;Laerm;43666;51.442;6.778;2023-02-01T05:48:40;37.29;31.68;40.71;;
49732;Laerm;43666;51.442;6.778;2023-02-01T05:51:05;37.28;29.92;40.89;;
49732;Laerm;43666;51.442;6.778;2023-02-01T05:53:32;37.20;29.92;40.43;;
49732;Laerm;43666;51.442;6.778;2023-02-01T05:55:57;37.20;29.92;40.43;;
49732;Laerm;43666;51.442;6.778;2023-02-01T05:58:23;37.17;29.92;40.53;;
49732;Laerm;43666;51.442;6.778;2023-02-01T06:00:48;37.12;29.92;40.53;;
49732;Laerm;43666;51.442;6.778;2023-02-01T06:03:14;37.19;30.89;40.89;;
49732;Laerm;43666;51.442;6.778;2023-02-01T06:05:40;37.12;29.92;40.13;;
49732;Laerm;43666;51.442;6.778;2023-02-01T06:08:05;37.21;29.92;41.14;;
49732;Laerm;43666;51.442;6.778;2023-02-01T06:10:32;37.19;26.91;40.89;;
49732;Laerm;43666;51.442;6.778;2023-02-01T06:12:58;37.25;28.67;41.33;;
49732;Laerm;43666;51.442;6.778;2023-02-01T06:15:23;37.15;28.67;40.23;;
49732;Laerm;43666;51.442;6.778;2023-02-01T06:17:49;37.12;26.91;40.53;;
49732;Laerm;43666;51.442;6.778;2023-02-01T06:20:15;37.17;29.92;41.14;;
49732;Laerm;43666;51.442;6.778;2023-02-01T06:22:42;37.31;28.67;41.14;;
49732;Laerm;43666;51.442;6.778;2023-02-01T06:25:08;37.22;28.67;40.98;;
49732;Laerm;43666;51.442;6.778;2023-02-01T06:27:35;37.20;29.92;41.19;;
49732;Laerm;43666;51.442;6.778;2023-02-01T06:30:02;37.14;29.92;41.82;;
49732;Laerm;43666;51.442;6.778;2023-02-01T06:32:28;37.20;26.91;41.30;;
49732;Laerm;43666;51.442;6.778;2023-02-01T06:34:54;37.24;29.92;41.61;;
49732;Laerm;43666;51.442;6.778;2023-02-01T06:37:21;37.18;28.67;41.22;;
49732;Laerm;43666;51.442;6.778;2023-02-01T06:39:48;37.35;30.89;40.80;;
49732;Laerm;43666;51.442;6.778;2023-02-01T06:42:14;37.27;29.92;40.98;;
49732;Laerm;43666;51.442;6.778;2023-02-01T06:44:40;37.10;29.92;40.33;;
49732;Laerm;43666;51.442;6.778;2023-02-01T06:47:05;37.12;28.67;40.71;;
49732;Laerm;43666;51.442;6.778;2023-02-01T06:49:31;37.15;28.67;40.53;;
49732;Laerm;43666;51.442;6.778;2023-02-01T06:51:58;37.18;29.92;40.80;;
49732;Laerm;43666;51.442;6.778;2023-02-01T06:54:26;37.17;30.89;40.62;;
49732;Laerm;43666;51.442;6.778;2023-02-01T06:56:52;37.30;29.92;40.98;;
49732;Laerm;43666;51.442;6.778;2023-02-01T06:59:18;37.07;29.92;40.89;;
49732;Laerm;43666;51.442;6.778;2023-02-01T07:01:44;36.95;23.90;40.43;;
49732;Laerm;43666;51.442;6.778;2023-02-01T07:04:10;37.07;26.91;40.89;;
49732;Laerm;43666;51.442;6.778;2023-02-01T07:06:36;36.96;29.92;40.53;;
49732;Laerm;43666;51.442;6.778;2023-02-01T07:09:02;36.99;28.67;41.53;;
49732;Laerm;43666;51.442;6.778;2023-02-01T07:11:27;37.01;29.57;41.46;;
49732;Laerm;43666;51.442;6.778;2023-02-01T07:13:53;36.98;29.92;41.82;;
49732;Laerm;43666;51.442;6.778;2023-02-01T07:16:19;37.18;28.67;42.03;;
49732;Laerm;43666;51.442;6.778;2023-02-01T07:18:45;37.13;29.92;40.71;;
49732;Laerm;43666;51.442;6.778;2023-02-01T07:21:11;37.17;29.92;41.82;;
49732;Laerm;43666;51.442;6.778;2023-02-01T07:23:37;37.09;29.92;40.43;;
49732;Laerm;43666;51.442;6.778;2023-02-01T07:26:03;37.19;5.00;40.62;;
49732;Laerm;43666;51.442;6.778;2023-02-01T07:28:30;37.19;28.67;41.38;;
49732;Laerm;43666;51.442;6.778;2023-02-01T07:31:06;37.29;28.67;41.82;;
49732;Laerm;43666;51.442;6.778;2023-02-01T07:33:32;37.23;29.92;41.75;;
49732;Laerm;43666;51.442;6.778;2023-02-01T07:35:59;37.00;26.91;40.96;;
49732;Laerm;43666;51.442;6.778;2023-02-01T07:38:26;37.05;26.91;41.06;;
49732;Laerm;43666;51.442;6.778;2023-02-01T07:40:56;37.05;26.91;40.98;;
49732;Laerm;43666;51.442;6.778;2023-02-01T07:43:22;37.04;28.67;42.09;;
49732;Laerm;43666;51.442;6.778;2023-02-01T07:45:51;37.16;28.67;41.53;;
49732;Laerm;43666;51.442;6.778;2023-02-01T07:48:18;37.13;30.54;41.96;;
49732;Laerm;43666;51.442;6.778;2023-02-01T07:50:44;37.15;28.67;41.46;;
49732;Laerm;43666;51.442;6.778;2023-02-01T07:53:09;37.15;29.92;42.03;;
49732;Laerm;43666;51.442;6.778;2023-02-01T07:55:37;37.20;29.92;40.33;;
49732;Laerm;43666;51.442;6.778;2023-02-01T07:58:02;37.21;30.89;41.46;;
49732;Laerm;43666;51.442;6.778;2023-02-01T08:00:28;37.18;29.92;43.04;;
49732;Laerm;43666;51.442;6.778;2023-02-01T08:03:12;37.01;29.92;41.75;;
49732;Laerm;43666;51.442;6.778;2023-02-01T08:05:38;36.96;29.57;41.75;;
49732;Laerm;43666;51.442;6.778;2023-02-01T08:08:04;36.93;29.92;40.62;;
49732;Laerm;43666;51.442;6.778;2023-02-01T08:10:30;36.97;28.67;40.23;;
49732;Laerm;43666;51.442;6.778;2023-02-01T08:12:59;37.15;29.92;40.53;;
49732;Laerm;43666;51.442;6.778;2023-02-01T08:15:26;37.27;30.54;40.98;;
49732;Laerm;43666;51.442;6.778;2023-02-01T08:17:52;37.28;28.67;41.53;;
49732;Laerm;43666;51.442;6.778;2023-02-01T08:20:19;37.37;28.67;41.53;;
49732;Laerm;43666;51.442;6.778;2023-02-01T08:22:47;37.23;28.67;41.61;;
49732;Laerm;43666;51.442;6.778;2023-02-01T08:25:12;37.28;29.92;40.71;;
49732;Laerm;43666;51.442;6.778;2023-02-01T08:27:38;37.20;28.67;40.98;;
49732;Laerm;43666;51.442;6.778;2023-02-01T08:30:05;37.33;28.67;41.22;;
49732;Laerm;43666;51.442;6.778;2023-02-01T08:32:33;37.29;29.92;40.98;;
49732;Laerm;43666;51.442;6.778;2023-02-01T08:34:59;37.28;28.67;41.53;;
49732;Laerm;43666;51.442;6.778;2023-02-01T08:37:25;37.21;26.91;41.89;;
49732;Laerm;43666;51.442;6.778;2023-02-01T08:39:51;37.29;28.67;41.82;;
49732;Laerm;43666;51.442;6.778;2023-02-01T08:42:17;37.25;26.91;42.03;;
49732;Laerm;43666;51.442;6.778;2023-02-01T08:45:01;36.95;26.91;41.61;;
49732;Laerm;43666;51.442;6.778;2023-02-01T08:47:28;36.92;29.92;40.23;;
49732;Laerm;43666;51.442;6.778;2023-02-01T08:49:55;37.07;26.91;41.96;;
49732;Laerm;43666;51.442;6.778;2023-02-01T08:52:20;36.97;28.67;42.59;;
49732;Laerm;43666;51.442;6.778;2023-02-01T08:54:47;37.08;29.92;42.71;;
49732;Laerm;43666;51.442;6.778;2023-02-01T08:57:13;37.18;29.92;42.35;;
49732;Laerm;43666;51.442;6.778;2023-02-01T08:59:39;37.15;29.92;42.03;;
49732;Laerm;43666;51.442;6.778;2023-02-01T09:02:05;37.14;29.92;42.29;;
49732;Laerm;43666;51.442;6.778;2023-02-01T09:04:30;37.23;29.92;41.96;;
49732;Laerm;43666;51.442;6.778;2023-02-01T09:06:56;37.32;26.91;41.53;;
49732;Laerm;43666;51.442;6.778;2023-02-01T09:09:27;37.23;29.92;42.76;;
49732;Laerm;43666;51.442;6.778;2023-02-01T09:11:53;37.23;30.89;41.82;;
49732;Laerm;43666;51.442;6.778;2023-02-01T09:14:19;37.27;28.67;42.41;;
49732;Laerm;43666;51.442;6.778;2023-02-01T09:16:45;37.27;29.92;41.53;;
49732;Laerm;43666;51.442;6.778;2023-02-01T09:19:10;37.18;29.92;42.16;;
49732;Laerm;43666;51.442;6.778;2023-02-01T09:21:36;37.20;26.91;41.46;;
49732;Laerm;43666;51.442;6.778;2023-02-01T09:24:02;37.05;28.67;40.89;;
49732;Laerm;43666;51.442;6.778;2023-02-01T09:26:29;37.11;29.92;41.46;;
49732;Laerm;43666;51.442;6.778;2023-02-01T09:28:55;36.96;26.91;42.03;;
49732;Laerm;43666;51.442;6.778;2023-02-01T09:31:21;37.04;29.92;41.68;;
49732;Laerm;43666;51.442;6.778;2023-02-01T09:33:46;37.07;23.90;42.16;;
49732;Laerm;43666;51.442;6.778;2023-02-01T09:36:12;37.13;28.67;41.96;;
49732;Laerm;43666;51.442;6.778;2023-02-01T09:38:38;37.16;28.67;41.68;;
49732;Laerm;43666;51.442;6.778;2023-02-01T09:41:16;37.12;28.67;41.75;;
49732;Laerm;43666;51.442;6.778;2023-02-01T09:43:52;37.11;28.67;41.30;;
49732;Laerm;43666;51.442;6.778;2023-02-01T09:46:24;37.01;28.67;41.30;;
49732;Laerm;43666;51.442;6.778;2023-02-01T09:48:54;37.05;28.67;41.46;;
49732;Laerm;43666;51.442;6.778;2023-02-01T09:51:31;36.97;28.67;41.06;;
49732;Laerm;43666;51.442;6.778;2023-02-01T09:54:15;36.91;28.67;41.46;;
49732;Laerm;43666;51.442;6.778;2023-02-01T09:59:33;36.90;28.67;40.80;;
49732;Laerm;43666;51.442;6.778;2023-02-01T10:02:01;36.83;29.92;40.54;;
49732;Laerm;43666;51.442;6.778;2023-02-01T10:04:27;36.92;28.67;41.06;;
49732;Laerm;43666;51.442;6.778;2023-02-01T10:10:01;36.97;29.92;40.98;;
49732;Laerm;43666;51.442;6.778;2023-02-01T10:28:18;36.82;29.92;41.06;;
49732;Laerm;43666;51.442;6.778;2023-02-01T10:30:47;36.70;26.91;40.71;;
49732;Laerm;43666;51.442;6.778;2023-02-01T10:33:25;36.63;26.91;40.43;;
49732;Laerm;43666;51.442;6.778;2023-02-01T10:35:53;36.68;28.67;40.53;;
49732;Laerm;43666;51.442;6.778;2023-02-01T10:38:26;36.75;26.91;40.62;;
49732;Laerm;43666;51.442;6.778;2023-02-01T10:40:53;36.94;26.56;42.53;;
49732;Laerm;43666;51.442;6.778;2023-02-01T10:43:20;36.57;23.90;39.92;;
49732;Laerm;43666;51.442;6.778;2023-02-01T10:45:46;36.71;28.67;41.14;;
49732;Laerm;43666;51.442;6.778;2023-02-01T10:48:12;36.71;26.91;40.13;;
49732;Laerm;43666;51.442;6.778;2023-02-01T10:50:38;36.70;28.67;39.92;;
49732;Laerm;43666;51.442;6.778;2023-02-01T10:53:11;36.80;30.89;40.33;;
49732;Laerm;43666;51.442;6.778;2023-02-01T10:58:04;36.59;29.92;39.81;;
49732;Laerm;43666;51.442;6.778;2023-02-01T11:00:39;36.65;29.92;40.13;;
49732;Laerm;43666;51.442;6.778;2023-02-01T11:05:52;36.71;28.67;40.13;;
49732;Laerm;43666;51.442;6.778;2023-02-01T11:08:17;36.64;28.67;41.38;;
49732;Laerm;43666;51.442;6.778;2023-02-01T11:10:45;36.67;28.67;40.62;;
49732;Laerm;43666;51.442;6.778;2023-02-01T11:13:15;36.76;29.92;40.71;;
49732;Laerm;43666;51.442;6.778;2023-02-01T11:15:44;36.72;29.92;40.33;;
49732;Laerm;43666;51.442;6.778;2023-02-01T11:18:18;36.73;28.67;40.45;;
49732;Laerm;43666;51.442;6.778;2023-02-01T11:20:44;36.68;29.92;40.53;;
49732;Laerm;43666;51.442;6.778;2023-02-01T11:23:18;36.67;28.67;42.35;;
49732;Laerm;43666;51.442;6.778;2023-02-01T11:25:49;36.75;26.91;39.81;;
49732;Laerm;43666;51.442;6.778;2023-02-01T11:28:16;36.74;30.89;40.13;;
49732;Laerm;43666;51.442;6.778;2023-02-01T11:30:43;36.86;28.67;40.03;;
49732;Laerm;43666;51.442;6.778;2023-02-01T11:33:18;36.90;30.89;41.53;;
49732;Laerm;43666;51.442;6.778;2023-02-01T11:35:45;36.89;29.92;40.53;;
49732;Laerm;43666;51.442;6.778;2023-02-01T11:38:26;36.82;28.67;40.62;;
49732;Laerm;43666;51.442;6.778;2023-02-01T11:40:52;36.86;26.91;40.33;;
49732;Laerm;43666;51.442;6.778;2023-02-01T11:43:24;36.87;28.67;40.33;;
49732;Laerm;43666;51.442;6.778;2023-02-01T11:45:55;37.11;26.91;40.62;;
49732;Laerm;43666;51.442;6.778;2023-02-01T11:48:21;37.11;28.67;40.62;;
49732;Laerm;43666;51.442;6.778;2023-02-01T11:56:15;37.34;31.68;41.53;;
49732;Laerm;43666;51.442;6.778;2023-02-01T11:58:48;37.41;30.89;40.71;;
49732;Laerm;43666;51.442;6.778;2023-02-01T12:06:50;37.47;29.92;40.53;;
49732;Laerm;43666;51.442;6.778;2023-02-01T12:15:19;37.13;28.67;40.71;;
49732;Laerm;43666;51.442;6.778;2023-02-01T12:17:54;37.08;28.67;41.30;;
49732;Laerm;43666;51.442;6.778;2023-02-01T12:28:30;36.81;28.67;40.33;;
49732;Laerm;43666;51.442;6.778;2023-02-01T12:33:48;36.70;28.67;44.54;;
49732;Laerm;43666;51.442;6.778;2023-02-01T12:38:53;36.62;23.90;39.81;;
49732;Laerm;43666;51.442;6.778;2023-02-01T12:41:25;36.58;28.67;40.23;;
49732;Laerm;43666;51.442;6.778;2023-02-01T12:43:55;36.55;26.91;40.71;;
49732;Laerm;43666;51.442;6.778;2023-02-01T12:46:41;36.32;28.67;39.34;;
49732;Laerm;43666;51.442;6.778;2023-02-01T12:49:13;36.37;26.91;40.13;;
49732;Laerm;43666;51.442;6.778;2023-02-01T12:51:42;36.43;26.91;40.13;;
49732;Laerm;43666;51.442;6.778;2023-02-01T12:54:20;36.45;26.91;40.13;;
49732;Laerm;43666;51.442;6.778;2023-02-01T12:56:48;36.33;28.67;40.98;;
49732;Laerm;43666;51.442;6.778;2023-02-01T12:59:37;36.44;26.91;39.70;;
49732;Laerm;43666;51.442;6.778;2023-02-01T13:02:16;36.70;28.67;43.29;;
49732;Laerm;43666;51.442;6.778;2023-02-01T13:07:21;36.71;28.67;40.33;;
49732;Laerm;43666;51.442;6.778;2023-02-01T13:09:49;36.59;28.67;40.33;;
49732;Laerm;43666;51.442;6.778;2023-02-01T13:12:28;36.71;29.57;42.16;;
49732;Laerm;43666;51.442;6.778;2023-02-01T13:15:02;36.65;26.91;42.03;;
49732;Laerm;43666;51.442;6.778;2023-02-01T13:17:31;36.68;28.67;40.89;;
49732;Laerm;43666;51.442;6.778;2023-02-01T13:20:17;36.81;29.92;41.53;;
49732;Laerm;43666;51.442;6.778;2023-02-01T13:22:54;36.65;26.91;40.89;;
49732;Laerm;43666;51.442;6.778;2023-02-01T13:25:31;36.75;28.67;40.62;;
49732;Laerm;43666;51.442;6.778;2023-02-01T13:28:22;36.73;29.92;40.80;;
49732;Laerm;43666;51.442;6.778;2023-02-01T13:31:29;36.71;28.67;40.43;;
49732;Laerm;43666;51.442;6.778;2023-02-01T13:33:55;36.68;5.00;40.43;;
49732;Laerm;43666;51.442;6.778;2023-02-01T13:44:19;36.49;28.67;40.18;;
49732;Laerm;43666;51.442;6.778;2023-02-01T13:46:46;36.56;28.67;40.33;;
49732;Laerm;43666;51.442;6.778;2023-02-01T13:49:32;36.57;28.67;40.13;;
49732;Laerm;43666;51.442;6.778;2023-02-01T13:52:02;36.62;26.91;40.89;;
49732;Laerm;43666;51.442;6.778;2023-02-01T13:56:53;36.41;26.91;45.39;;
49732;Laerm;43666;51.442;6.778;2023-02-01T13:59:36;36.23;26.91;40.13;;
49732;Laerm;43666;51.442;6.778;2023-02-01T14:04:48;36.54;26.91;40.33;;
49732;Laerm;43666;51.442;6.778;2023-02-01T14:07:18;36.69;23.90;40.80;;
49732;Laerm;43666;51.442;6.778;2023-02-01T14:09:43;36.54;26.91;40.13;;
49732;Laerm;43666;51.442;6.778;2023-02-01T14:15:16;36.54;28.67;40.33;;
49732;Laerm;43666;51.442;6.778;2023-02-01T14:17:41;36.71;26.91;40.03;;
49732;Laerm;43666;51.442;6.778;2023-02-01T14:23:09;36.60;28.67;40.43;;
49732;Laerm;43666;51.442;6.778;2023-02-01T14:25:36;36.57;28.67;40.03;;
49732;Laerm;43666;51.442;6.778;2023-02-01T14:28:10;36.45;29.92;39.81;;
49732;Laerm;43666;51.442;6.778;2023-02-01T14:30:36;36.57;23.90;40.23;;
49732;Laerm;43666;51.442;6.778;2023-02-01T14:33:11;36.56;29.92;40.89;;
49732;Laerm;43666;51.442;6.778;2023-02-01T14:35:37;36.54;29.92;40.13;;
49732;Laerm;43666;51.442;6.778;2023-02-01T14:38:02;36.51;28.67;40.71;;
49732;Laerm;43666;51.442;6.778;2023-02-01T14:40:29;36.51;28.67;40.13;;
49732;Laerm;43666;51.442;6.778;2023-02-01T14:42:56;36.56;29.92;39.81;;
49732;Laerm;43666;51.442;6.778;2023-02-01T14:47:49;36.49;26.91;40.33;;
49732;Laerm;43666;51.442;6.778;2023-02-01T14:52:49;36.49;29.92;41.38;;
49732;Laerm;43666;51.442;6.778;2023-02-01T15:00:59;36.49;28.67;40.03;;
49732;Laerm;43666;51.442;6.778;2023-02-01T15:05:54;36.60;28.67;40.23;;
49732;Laerm;43666;51.442;6.778;2023-02-01T15:08:22;36.57;26.91;40.33;;
49732;Laerm;43666;51.442;6.778;2023-02-01T15:10:49;36.45;28.67;39.92;;
49732;Laerm;43666;51.442;6.778;2023-02-01T15:13:22;36.59;26.91;40.33;;
49732;Laerm;43666;51.442;6.778;2023-02-01T15:15:59;36.62;28.67;40.62;;
49732;Laerm;43666;51.442;6.778;2023-02-01T15:18:26;36.47;23.90;39.81;;
49732;Laerm;43666;51.442;6.778;2023-02-01T15:20:59;36.41;28.67;41.46;;
49732;Laerm;43666;51.442;6.778;2023-02-01T15:23:25;36.54;26.91;40.03;;
49732;Laerm;43666;51.442;6.778;2023-02-01T15:25:51;36.58;26.91;40.62;;
49732;Laerm;43666;51.442;6.778;2023-02-01T15:28:17;36.57;29.92;40.33;;
49732;Laerm;43666;51.442;6.778;2023-02-01T15:30:54;36.55;26.91;40.33;;
49732;Laerm;43666;51.442;6.778;2023-02-01T15:33:20;36.55;26.91;40.80;;
49732;Laerm;43666;51.442;6.778;2023-02-01T15:35:48;36.36;28.67;41.38;;
49732;Laerm;43666;51.442;6.778;2023-02-01T15:41:04;36.43;28.67;39.92;;
49732;Laerm;43666;51.442;6.778;2023-02-01T15:43:35;36.36;26.91;39.81;;
49732;Laerm;43666;51.442;6.778;2023-02-01T15:46:02;36.41;28.67;39.34;;
49732;Laerm;43666;51.442;6.778;2023-02-01T15:48:32;36.50;28.67;40.13;;
49732;Laerm;43666;51.442;6.778;2023-02-01T15:50:58;36.57;28.32;40.98;;
49732;Laerm;43666;51.442;6.778;2023-02-01T15:53:25;36.46;30.89;39.70;;
49732;Laerm;43666;51.442;6.778;2023-02-01T15:56:00;36.67;29.92;40.23;;
49732;Laerm;43666;51.442;6.778;2023-02-01T15:58:26;36.65;28.67;40.13;;
49732;Laerm;43666;51.442;6.778;2023-02-01T16:00:57;36.71;28.67;40.71;;
49732;Laerm;43666;51.442;6.778;2023-02-01T16:06:01;36.70;28.67;40.13;;